Archival Weather

Norman Y Mineta San Jose Intl

San Jose, California (KSJC)

Report from: Tuesday, February 13, 2024 7:53 AM PST
Current time: Friday, June 21, 2024 12:42 AM PDT

Current weather – Weather history – Daily summaries
Weather forecast

Temperature8.3°C (46.9°F)
Wind chill6.4°C (43.6°F)
Dew point6.1°C (43.0°F)
Winds 6 kts (3.1 m/s, 6.9 mph) South (180°)
Visibility9 mi. (14.5 km)
Clouds Few clouds 1,100 ft. (335 m)
Scattered clouds 3,800 ft. (1,158 m)
Ceiling: Broken clouds 9,000 ft. (2,743 m)
Altimeter30.07 in.Hg (1018 mB)
Relative humidity86 %
Density altitude-832 ft. (-254 m)
Sea-level pressure101.8 kPa (1018 mB, 30.06 in.Hg)
Remarks Automated weather observing station with precipitation discriminator
Flight conditions Visual Meteorological Conditions
Raw dataKSJC 131553Z 18006KT 9SM FEW011 SCT038 BKN090 08/06 A3007 RMK AO2 SLP181 T00830061
An error has occurred. This application may no longer respond until reloaded. Reload 🗙